createdAt,value
2023-05-24T00:04:30.641Z,100343.97
2023-05-24T00:09:33.436Z,100356.56
2023-05-24T00:14:35.833Z,100358.56
2023-05-24T00:19:38.844Z,100335.97
2023-05-24T00:24:41.226Z,100323.28
2023-05-24T00:29:43.692Z,100331.00
2023-05-24T00:34:45.893Z,100350.09
2023-05-24T00:39:48.145Z,100340.28
2023-05-24T00:44:50.394Z,100335.47
2023-05-24T00:49:52.711Z,100329.00
2023-05-24T00:54:55.043Z,100334.53
2023-05-24T00:59:57.616Z,100344.22
2023-05-24T01:05:00.462Z,100352.09
2023-05-24T01:10:10.740Z,100351.50
2023-05-24T01:15:26.001Z,100343.63
2023-05-24T01:20:32.900Z,100334.44
2023-05-24T01:25:53.470Z,100344.47
2023-05-24T01:30:56.617Z,100338.69
2023-05-24T01:35:58.983Z,100336.31
2023-05-24T01:41:11.813Z,100325.78
2023-05-24T01:46:17.055Z,100348.03
2023-05-24T01:51:23.172Z,100340.91
2023-05-24T01:56:28.007Z,100330.59
2023-05-24T02:01:31.125Z,100328.13
2023-05-24T02:06:33.490Z,100331.50
2023-05-24T02:11:35.873Z,100341.16
2023-05-24T02:16:43.150Z,100310.72
2023-05-24T02:21:45.491Z,100315.25
2023-05-24T02:26:50.112Z,100322.06
2023-05-24T02:31:56.744Z,100316.03
2023-05-24T02:36:59.368Z,100330.28
2023-05-24T02:42:02.008Z,100323.97
2023-05-24T02:47:04.314Z,100327.91
2023-05-24T02:52:06.748Z,100340.22
2023-05-24T02:57:09.035Z,100340.59
2023-05-24T03:02:14.171Z,100336.34
2023-05-24T03:07:16.556Z,100350.34
2023-05-24T03:12:18.802Z,100341.97
2023-05-24T03:17:21.139Z,100344.22
2023-05-24T03:22:23.465Z,100356.63
2023-05-24T03:27:25.786Z,100358.13
2023-05-24T03:32:28.183Z,100358.50
2023-05-24T03:37:30.515Z,100360.72
2023-05-24T03:42:32.901Z,100358.84
2023-05-24T03:47:35.262Z,100353.78
2023-05-24T03:52:37.569Z,100376.19
2023-05-24T03:57:39.768Z,100382.53
2023-05-24T04:02:42.575Z,100360.59
2023-05-24T04:07:46.769Z,100357.53
2023-05-24T04:12:49.113Z,100352.44
2023-05-24T04:17:55.461Z,100371.75
2023-05-24T04:22:57.976Z,100358.22
2023-05-24T04:28:00.736Z,100378.66
2023-05-24T04:33:04.211Z,100373.81
2023-05-24T04:38:06.592Z,100381.97
2023-05-24T04:43:11.370Z,100371.28
2023-05-24T04:48:13.599Z,100386.47
2023-05-24T04:53:15.881Z,100381.13
2023-05-24T04:58:18.233Z,100389.09
2023-05-24T05:03:20.593Z,100390.13
2023-05-24T05:08:22.867Z,100395.25
2023-05-24T05:13:25.128Z,100405.19
2023-05-24T05:18:27.306Z,100380.63
2023-05-24T05:23:32.667Z,100398.94
2023-05-24T05:28:35.035Z,100403.31
2023-05-24T05:33:37.330Z,100414.16
2023-05-24T05:38:40.791Z,100405.38
2023-05-24T05:43:43.203Z,100396.03
2023-05-24T05:48:46.437Z,100380.47
2023-05-24T05:53:48.900Z,100384.03
2023-05-24T05:58:51.287Z,100387.56
2023-05-24T06:03:53.764Z,100383.72
2023-05-24T06:08:56.395Z,100398.00
2023-05-24T06:13:58.693Z,100391.53
2023-05-24T06:19:06.081Z,100397.16
2023-05-24T06:24:10.236Z,100397.97
2023-05-24T06:29:14.342Z,100405.34
2023-05-24T06:34:21.769Z,100409.31
2023-05-24T06:39:25.880Z,100406.69
2023-05-24T06:44:34.884Z,100399.06
2023-05-24T06:49:37.524Z,100391.56
2023-05-24T06:54:39.777Z,100392.53
2023-05-24T06:59:42.143Z,100406.72
2023-05-24T07:04:45.314Z,100401.47
2023-05-24T07:09:48.000Z,100387.13
2023-05-24T07:14:50.299Z,100386.84
2023-05-24T07:19:52.945Z,100387.16
2023-05-24T07:24:56.352Z,100404.03
2023-05-24T07:29:59.199Z,100396.22
2023-05-24T07:35:01.524Z,100399.31
2023-05-24T07:40:05.062Z,100393.06
2023-05-24T07:45:11.750Z,100397.28
2023-05-24T07:50:14.043Z,100387.84
2023-05-24T07:55:16.561Z,100367.13
2023-05-24T08:00:20.551Z,100374.31
2023-05-24T08:05:22.890Z,100371.06
2023-05-24T08:10:25.672Z,100365.09
2023-05-24T08:15:27.892Z,100369.53
2023-05-24T08:20:30.240Z,100389.50
2023-05-24T08:25:33.361Z,100384.84
2023-05-24T08:30:35.687Z,100369.53
2023-05-24T08:35:38.162Z,100378.03
2023-05-24T08:40:40.439Z,100387.28
2023-05-24T08:45:43.801Z,100391.09
2023-05-24T08:50:47.375Z,100386.16
2023-05-24T08:55:53.682Z,100385.25
2023-05-24T09:00:56.289Z,100325.63
2023-05-24T09:05:58.986Z,100363.72
2023-05-24T09:11:04.003Z,100366.28
2023-05-24T09:16:06.881Z,100370.00
2023-05-24T09:21:11.140Z,100368.16
2023-05-24T09:26:13.856Z,100373.56
2023-05-24T09:31:16.085Z,100364.66
2023-05-24T09:36:18.766Z,100367.59
2023-05-24T09:41:21.048Z,100354.13
2023-05-24T09:46:23.478Z,100351.84
2023-05-24T09:51:26.223Z,100333.34
2023-05-24T09:56:28.954Z,100350.75
2023-05-24T10:01:34.168Z,100345.63
2023-05-24T10:06:40.559Z,100324.56
2023-05-24T10:11:43.556Z,100324.63
2023-05-24T10:16:46.039Z,100332.44
2023-05-24T10:21:50.079Z,100340.44
2023-05-24T10:26:54.202Z,100307.09
2023-05-24T10:31:57.362Z,100298.91
2023-05-24T10:37:00.006Z,100304.75
2023-05-24T10:42:09.577Z,100317.28
2023-05-24T10:47:14.456Z,100297.28
2023-05-24T10:52:16.801Z,100288.69
2023-05-24T10:57:25.013Z,100303.50
2023-05-24T11:02:36.156Z,100297.19
2023-05-24T11:07:45.214Z,100287.88
2023-05-24T11:12:48.669Z,100278.09
2023-05-24T11:18:13.197Z,100277.59
2023-05-24T11:23:16.539Z,100266.81
2023-05-24T11:28:19.396Z,100249.41
2023-05-24T11:33:23.901Z,100262.47
2023-05-24T11:38:27.915Z,100256.63
2023-05-24T11:43:31.949Z,100250.44
2023-05-24T11:48:34.409Z,100255.09
2023-05-24T11:53:36.708Z,100232.63
2023-05-24T11:58:53.121Z,100232.59
2023-05-24T12:03:55.952Z,100236.53
2023-05-24T12:08:58.315Z,100221.09
2023-05-24T12:14:00.866Z,100232.41
2023-05-24T12:19:09.467Z,100227.63
2023-05-24T12:24:20.039Z,100212.72
2023-05-24T12:29:22.717Z,100219.63
2023-05-24T12:34:25.143Z,100207.63
2023-05-24T12:39:35.815Z,100207.63
2023-05-24T12:44:39.093Z,100187.91
2023-05-24T12:49:41.478Z,100167.72
2023-05-24T12:54:43.838Z,100186.75
2023-05-24T12:59:46.378Z,100170.88
2023-05-24T13:04:48.986Z,100156.25
2023-05-24T13:09:51.506Z,100180.78
2023-05-24T13:14:54.305Z,100129.69
2023-05-24T13:19:57.882Z,100147.41
2023-05-24T13:25:00.153Z,100167.44
2023-05-24T13:30:03.146Z,100126.22
2023-05-24T13:35:08.290Z,100128.19
2023-05-24T13:40:11.460Z,100155.03
2023-05-24T13:45:13.929Z,100149.53
2023-05-24T13:50:16.567Z,100157.28
2023-05-24T13:55:19.055Z,100144.25
2023-05-24T14:00:22.044Z,100139.66
2023-05-24T14:05:27.799Z,100146.59
2023-05-24T14:10:30.712Z,100133.63
2023-05-24T14:15:34.446Z,100161.84
2023-05-24T14:20:38.482Z,100143.25
2023-05-24T14:25:42.699Z,100139.75
2023-05-24T14:30:45.575Z,100149.53
2023-05-24T14:35:48.668Z,100130.38
2023-05-24T14:40:51.588Z,100073.50
2023-05-24T14:45:54.203Z,100118.63
2023-05-24T14:50:56.660Z,100102.53
2023-05-24T14:55:59.107Z,100088.81
2023-05-24T15:01:01.790Z,100138.72
2023-05-24T15:06:05.491Z,100153.97
2023-05-24T15:11:08.147Z,100147.66
2023-05-24T15:16:10.488Z,100133.94
2023-05-24T15:21:12.751Z,100137.94
2023-05-24T15:26:15.033Z,100113.09
2023-05-24T15:31:18.297Z,100134.88
2023-05-24T15:36:20.751Z,100140.09
2023-05-24T15:41:23.216Z,100141.69
2023-05-24T15:46:25.812Z,100141.28
2023-05-24T15:56:33.364Z,100167.97
2023-05-24T16:01:35.822Z,100168.66
2023-05-24T16:06:38.726Z,100139.97
2023-05-24T16:11:41.443Z,100151.31
2023-05-24T16:16:45.043Z,100154.53
2023-05-24T16:21:47.362Z,100156.28
2023-05-24T16:26:49.629Z,100171.44
2023-05-24T16:31:52.399Z,100165.09
2023-05-24T16:36:54.762Z,100146.31
2023-05-24T16:41:58.207Z,100169.63
2023-05-24T16:47:02.743Z,100187.97
2023-05-24T16:52:05.242Z,100197.72
2023-05-24T16:57:08.012Z,100193.41
2023-05-24T17:02:10.309Z,100187.78
2023-05-24T17:07:12.608Z,100207.03
2023-05-24T17:12:15.310Z,100231.28
2023-05-24T17:17:17.669Z,100239.16
2023-05-24T17:22:20.926Z,100220.66
2023-05-24T17:27:23.153Z,100237.44
2023-05-24T17:32:25.390Z,100263.41
2023-05-24T17:37:27.690Z,100247.28
2023-05-24T17:42:30.031Z,100244.28
2023-05-24T17:47:32.333Z,100261.31
2023-05-24T17:52:34.626Z,100259.31
2023-05-24T17:57:36.846Z,100267.69
2023-05-24T18:02:39.123Z,100259.66
2023-05-24T18:07:41.459Z,100256.81
2023-05-24T18:12:44.126Z,100275.97
2023-05-24T18:17:46.560Z,100277.63
2023-05-24T18:22:48.834Z,100258.09
2023-05-24T18:27:51.224Z,100284.69
2023-05-24T18:33:05.343Z,100280.78
2023-05-24T18:38:09.590Z,100286.75
2023-05-24T18:43:14.264Z,100296.03
2023-05-24T18:48:16.781Z,100294.72
2023-05-24T18:53:19.103Z,100307.06
2023-05-24T18:58:21.435Z,100312.66
2023-05-24T19:03:23.859Z,100295.19
2023-05-24T19:08:26.420Z,100313.22
2023-05-24T19:13:28.859Z,100294.00
2023-05-24T19:18:31.270Z,100321.72
2023-05-24T19:23:33.636Z,100310.22
2023-05-24T19:28:38.271Z,100311.69
2023-05-24T19:33:52.041Z,100341.03
2023-05-24T19:39:01.750Z,100344.38
2023-05-24T19:44:04.196Z,100340.00
2023-05-24T19:49:06.622Z,100261.44
2023-05-24T19:54:09.700Z,100301.66
2023-05-24T19:59:12.645Z,100337.00
2023-05-24T20:04:15.376Z,100322.22
2023-05-24T20:09:19.199Z,100317.03
2023-05-24T20:14:21.723Z,100308.81
2023-05-24T20:19:24.197Z,100325.50
2023-05-24T20:24:26.569Z,100331.78
2023-05-24T20:29:29.090Z,100328.75
2023-05-24T20:34:31.489Z,100300.53
2023-05-24T20:39:33.925Z,100367.28
2023-05-24T20:44:36.287Z,100344.53
2023-05-24T20:49:38.691Z,100326.69
2023-05-24T20:54:41.108Z,100329.41
2023-05-24T20:59:43.603Z,100347.75
2023-05-24T21:04:46.106Z,100354.00
2023-05-24T21:09:48.491Z,100334.28
2023-05-24T21:14:54.332Z,100401.44
2023-05-24T21:19:56.828Z,100369.16
2023-05-24T21:24:59.371Z,100369.69
2023-05-24T21:30:01.838Z,100365.84
2023-05-24T21:35:04.368Z,100382.75
2023-05-24T21:40:16.190Z,100300.72
2023-05-24T21:45:18.687Z,100391.22
2023-05-24T21:50:21.124Z,100329.75
2023-05-24T21:55:23.431Z,100382.03
2023-05-24T22:00:27.656Z,100400.53
2023-05-24T22:05:30.139Z,100379.84
2023-05-24T22:10:32.577Z,100323.44
2023-05-24T22:15:34.972Z,100412.97
2023-05-24T22:20:37.432Z,100393.84
2023-05-24T22:25:39.797Z,100391.66
2023-05-24T22:30:42.191Z,100305.31
2023-05-24T22:35:44.798Z,100376.03
2023-05-24T22:40:47.543Z,100331.06
2023-05-24T22:45:50.105Z,100359.22
2023-05-24T22:50:58.016Z,100413.13
2023-05-24T22:56:00.352Z,100376.59
2023-05-24T23:01:02.788Z,100324.94
2023-05-24T23:06:05.941Z,100338.19
2023-05-24T23:11:10.915Z,100347.53
2023-05-24T23:16:13.508Z,100419.34
2023-05-24T23:21:17.145Z,100359.34
2023-05-24T23:26:20.040Z,100361.41
2023-05-24T23:31:22.990Z,100387.56
2023-05-24T23:36:25.450Z,100365.38
2023-05-24T23:41:27.773Z,100375.97
2023-05-24T23:46:30.746Z,100390.94
2023-05-24T23:51:36.251Z,100353.56
2023-05-24T23:56:41.390Z,100401.56
